www.cux-wetter.de
Wetterdaten: Samstag, 19.05.2007
Datum Zeit Temp. A. Feuchte A. Luftdruck Regen Wind Richtung Richtung Sonnenschein Solar Taupunkt Windchill Windben
19.05.2007 00:03 16,0 C 77 % 1007,5 hPa 0,0 l/m 17,3 km/h (3 Bft) S 185 0 min 0 W/m 12,0 C 11,7 C 17,3 km/h (3 Bft)
19.05.2007 00:18 16,4 C 75 % 1007,5 hPa 0,0 l/m 26,4 km/h (4 Bft) S-SW 210 0 min 0 W/m 12,0 C 10,2 C 26,4 km/h (4 Bft)
19.05.2007 00:33 16,5 C 74 % 1007,5 hPa 0,0 l/m 21,6 km/h (4 Bft) S-SW 205 0 min 0 W/m 11,8 C 11,3 C 21,6 km/h (4 Bft)
19.05.2007 00:48 16,4 C 75 % 1007,5 hPa 0,0 l/m 17,7 km/h (3 Bft) SW 225 0 min 0 W/m 12,0 C 12,1 C 17,7 km/h (3 Bft)
19.05.2007 01:03 16,3 C 75 % 1006,5 hPa 0,0 l/m 17,5 km/h (3 Bft) SW 230 0 min 0 W/m 11,9 C 12,1 C 17,5 km/h (3 Bft)
19.05.2007 01:18 16,3 C 75 % 1006,5 hPa 0,0 l/m 23,6 km/h (4 Bft) W-SW 240 0 min 0 W/m 11,9 C 10,6 C 23,6 km/h (4 Bft)
19.05.2007 01:33 16,1 C 76 % 1006,5 hPa 0,0 l/m 19,6 km/h (3 Bft) SW 225 0 min 0 W/m 11,9 C 11,3 C 19,6 km/h (3 Bft)
19.05.2007 01:48 16,0 C 77 % 1006,5 hPa 0,0 l/m 23,9 km/h (4 Bft) SW 230 0 min 0 W/m 12,0 C 10,2 C 23,9 km/h (4 Bft)
19.05.2007 02:03 16,0 C 78 % 1006,5 hPa 0,0 l/m 19,2 km/h (3 Bft) SW 230 0 min 0 W/m 12,2 C 11,2 C 19,2 km/h (3 Bft)
19.05.2007 02:18 15,8 C 79 % 1006,5 hPa 0,0 l/m 21,8 km/h (4 Bft) SW 230 0 min 0 W/m 12,2 C 10,4 C 21,8 km/h (4 Bft)
19.05.2007 02:33 15,7 C 79 % 1006,5 hPa 0,0 l/m 22,8 km/h (4 Bft) SW 220 0 min 0 W/m 12,1 C 10,0 C 22,8 km/h (4 Bft)
19.05.2007 02:48 16,0 C 80 % 1006,5 hPa 0,0 l/m 17,6 km/h (3 Bft) SW 235 0 min 0 W/m 12,5 C 11,7 C 17,6 km/h (3 Bft)
19.05.2007 03:03 15,9 C 79 % 1006,5 hPa 0,0 l/m 18,5 km/h (3 Bft) W-SW 240 0 min 0 W/m 12,3 C 11,3 C 18,5 km/h (3 Bft)
19.05.2007 03:18 15,7 C 80 % 1006,5 hPa 0,0 l/m 19,3 km/h (3 Bft) SW 230 0 min 0 W/m 12,3 C 10,8 C 19,3 km/h (3 Bft)
19.05.2007 03:33 15,7 C 81 % 1006,5 hPa 0,0 l/m 22,2 km/h (4 Bft) W-SW 240 0 min 0 W/m 12,4 C 10,1 C 22,2 km/h (4 Bft)
19.05.2007 03:48 15,8 C 81 % 1006,5 hPa 0,0 l/m 19,5 km/h (3 Bft) SW 230 0 min 0 W/m 12,5 C 10,9 C 19,5 km/h (3 Bft)
19.05.2007 04:03 16,0 C 81 % 1006,5 hPa 0,0 l/m 22,2 km/h (4 Bft) SW 235 0 min 0 W/m 12,7 C 10,5 C 22,2 km/h (4 Bft)
19.05.2007 04:18 15,9 C 80 % 1006,5 hPa 0,0 l/m 25,5 km/h (4 Bft) W-SW 245 0 min 0 W/m 12,5 C 9,7 C 25,5 km/h (4 Bft)
19.05.2007 04:33 15,9 C 81 % 1006,5 hPa 0,0 l/m 24,9 km/h (4 Bft) W-SW 255 0 min 0 W/m 12,6 C 9,8 C 24,9 km/h (4 Bft)
19.05.2007 04:48 15,7 C 82 % 1006,5 hPa 0,0 l/m 22,1 km/h (4 Bft) W 260 0 min 0 W/m 12,6 C 10,2 C 22,1 km/h (4 Bft)
19.05.2007 05:03 15,5 C 83 % 1006,5 hPa 0,0 l/m 19,4 km/h (3 Bft) W-SW 250 0 min 0 W/m 12,6 C 10,5 C 19,4 km/h (3 Bft)
19.05.2007 05:18 15,3 C 80 % 1006,5 hPa 0,0 l/m 23,5 km/h (4 Bft) W 260 0 min 0 W/m 11,9 C 9,3 C 23,5 km/h (4 Bft)
19.05.2007 05:33 15,0 C 79 % 1007,5 hPa 0,0 l/m 25,4 km/h (4 Bft) W 280 0 min 0 W/m 11,4 C 8,5 C 25,4 km/h (4 Bft)
19.05.2007 05:48 14,7 C 81 % 1007,5 hPa 0,0 l/m 27,9 km/h (5 Bft) W 260 0 min 0 W/m 11,5 C 7,6 C 27,9 km/h (5 Bft)
19.05.2007 06:03 14,7 C 80 % 1007,5 hPa 0,0 l/m 23,9 km/h (4 Bft) W 260 0 min 0 W/m 11,3 C 8,4 C 23,9 km/h (4 Bft)
19.05.2007 06:18 14,7 C 79 % 1007,5 hPa 0,0 l/m 24,1 km/h (4 Bft) W 265 0 min 0 W/m 11,1 C 8,4 C 24,1 km/h (4 Bft)
19.05.2007 06:33 14,8 C 77 % 1007,5 hPa 0,0 l/m 28,6 km/h (5 Bft) W 260 0 min 0 W/m 10,8 C 7,6 C 28,6 km/h (5 Bft)
19.05.2007 06:48 14,7 C 73 % 1007,5 hPa 0,0 l/m 31,2 km/h (5 Bft) W 265 0 min 0 W/m 9,9 C 7,1 C 31,2 km/h (5 Bft)
19.05.2007 07:03 14,3 C 76 % 1007,5 hPa 0,0 l/m 23,5 km/h (4 Bft) W 260 0 min 0 W/m 10,1 C 8,0 C 23,5 km/h (4 Bft)
19.05.2007 07:18 14,1 C 78 % 1007,5 hPa 0,0 l/m 23,1 km/h (4 Bft) W 275 0 min 0 W/m 10,3 C 7,8 C 23,1 km/h (4 Bft)
19.05.2007 07:33 14,0 C 78 % 1007,5 hPa 0,0 l/m 21,5 km/h (4 Bft) W 275 0 min 0 W/m 10,2 C 8,1 C 21,5 km/h (4 Bft)
19.05.2007 07:48 14,1 C 76 % 1008,5 hPa 0,0 l/m 26,2 km/h (4 Bft) W 270 0 min 0 W/m 9,9 C 7,1 C 26,2 km/h (4 Bft)
19.05.2007 08:03 14,3 C 75 % 1008,5 hPa 0,0 l/m 24,3 km/h (4 Bft) W 260 0 min 0 W/m 9,9 C 7,8 C 24,3 km/h (4 Bft)
19.05.2007 08:18 14,6 C 75 % 1008,5 hPa 0,0 l/m 22,9 km/h (4 Bft) W 260 0 min 0 W/m 10,2 C 8,5 C 22,9 km/h (4 Bft)
19.05.2007 08:33 14,8 C 73 % 1008,5 hPa 0,0 l/m 22,6 km/h (4 Bft) W-SW 255 0 min 0 W/m 10,0 C 8,9 C 22,6 km/h (4 Bft)
19.05.2007 08:48 15,4 C 71 % 1008,5 hPa 0,0 l/m 24,4 km/h (4 Bft) W 270 0 min 0 W/m 10,2 C 9,3 C 24,4 km/h (4 Bft)
19.05.2007 09:03 15,4 C 71 % 1008,5 hPa 0,0 l/m 28,4 km/h (5 Bft) W 270 0 min 0 W/m 10,2 C 8,5 C 28,4 km/h (5 Bft)
19.05.2007 09:18 15,5 C 70 % 1008,5 hPa 0,0 l/m 26,5 km/h (4 Bft) W 260 0 min 0 W/m 10,1 C 9,0 C 26,5 km/h (4 Bft)
19.05.2007 09:33 15,5 C 69 % 1008,5 hPa 0,0 l/m 30,4 km/h (5 Bft) W 260 0 min 0 W/m 9,8 C 8,3 C 30,4 km/h (5 Bft)
19.05.2007 09:48 17,3 C 62 % 1008,5 hPa 0,0 l/m 25,2 km/h (4 Bft) W 260 0 min 0 W/m 9,9 C 11,7 C 25,2 km/h (4 Bft)
19.05.2007 10:03 17,7 C 60 % 1008,5 hPa 0,0 l/m 26,0 km/h (4 Bft) W 265 0 min 0 W/m 9,8 C 12,1 C 26,0 km/h (4 Bft)
19.05.2007 10:18 17,4 C 60 % 1008,5 hPa 0,0 l/m 28,9 km/h (5 Bft) W-SW 250 0 min 0 W/m 9,6 C 11,2 C 28,9 km/h (5 Bft)
19.05.2007 10:33 17,1 C 61 % 1008,5 hPa 0,0 l/m 32,0 km/h (5 Bft) W-SW 250 0 min 0 W/m 9,5 C 10,4 C 32,0 km/h (5 Bft)
19.05.2007 10:48 16,3 C 62 % 1009,5 hPa 0,0 l/m 26,3 km/h (4 Bft) W 260 0 min 0 W/m 9,0 C 10,1 C 26,3 km/h (4 Bft)
19.05.2007 11:03 16,5 C 64 % 1009,5 hPa 0,0 l/m 29,3 km/h (5 Bft) W-SW 255 0 min 0 W/m 9,7 C 9,9 C 29,3 km/h (5 Bft)
19.05.2007 11:18 17,0 C 60 % 1009,5 hPa 0,0 l/m 28,1 km/h (5 Bft) W 265 0 min 0 W/m 9,2 C 10,8 C 28,1 km/h (5 Bft)
19.05.2007 11:33 18,2 C 55 % 1009,5 hPa 0,0 l/m 30,1 km/h (5 Bft) W-NW 285 0 min 0 W/m 9,0 C 12,2 C 30,1 km/h (5 Bft)
19.05.2007 11:48 18,4 C 54 % 1009,5 hPa 0,0 l/m 25,6 km/h (4 Bft) W 270 0 min 0 W/m 8,9 C 13,1 C 25,6 km/h (4 Bft)
19.05.2007 12:03 18,7 C 51 % 1009,5 hPa 0,0 l/m 25,3 km/h (4 Bft) W 275 0 min 0 W/m 8,4 C 13,6 C 25,3 km/h (4 Bft)
19.05.2007 12:18 18,8 C 55 % 1009,5 hPa 0,0 l/m 26,2 km/h (4 Bft) W 270 0 min 0 W/m 9,6 C 13,6 C 26,2 km/h (4 Bft)
19.05.2007 12:33 19,4 C 54 % 1009,5 hPa 0,0 l/m 28,3 km/h (5 Bft) W 260 0 min 0 W/m 9,8 C 14,1 C 28,3 km/h (5 Bft)
19.05.2007 12:48 19,6 C 53 % 1009,5 hPa 0,0 l/m 21,4 km/h (4 Bft) NW 305 0 min 0 W/m 9,8 C 15,4 C 21,4 km/h (4 Bft)
19.05.2007 13:03 19,8 C 54 % 1009,5 hPa 0,0 l/m 21,0 km/h (4 Bft) W 270 0 min 0 W/m 10,2 C 15,8 C 21,0 km/h (4 Bft)
19.05.2007 13:18 19,5 C 56 % 1009,5 hPa 0,0 l/m 25,9 km/h (4 Bft) NW 315 0 min 0 W/m 10,5 C 14,6 C 25,9 km/h (4 Bft)
19.05.2007 13:33 19,4 C 57 % 1009,5 hPa 0,0 l/m 23,0 km/h (4 Bft) NW 315 0 min 0 W/m 10,7 C 14,9 C 23,0 km/h (4 Bft)
19.05.2007 13:48 19,4 C 55 % 1010,5 hPa 0,0 l/m 20,3 km/h (4 Bft) NW 305 0 min 0 W/m 10,1 C 15,4 C 20,3 km/h (4 Bft)
19.05.2007 14:03 19,6 C 55 % 1010,5 hPa 0,0 l/m 20,1 km/h (4 Bft) NW 315 0 min 0 W/m 10,3 C 15,7 C 20,1 km/h (4 Bft)
19.05.2007 14:18 19,8 C 54 % 1010,5 hPa 0,0 l/m 18,1 km/h (3 Bft) W-NW 295 0 min 0 W/m 10,2 C 16,3 C 18,1 km/h (3 Bft)
19.05.2007 14:33 19,3 C 56 % 1010,5 hPa 0,0 l/m 22,3 km/h (4 Bft) N-NW 330 0 min 0 W/m 10,3 C 14,9 C 22,3 km/h (4 Bft)
19.05.2007 14:48 19,0 C 56 % 1010,5 hPa 0,0 l/m 26,0 km/h (4 Bft) NW 315 0 min 0 W/m 10,0 C 13,9 C 26,0 km/h (4 Bft)
19.05.2007 15:03 19,0 C 55 % 1010,5 hPa 0,0 l/m 22,5 km/h (4 Bft) NW 325 0 min 0 W/m 9,8 C 14,4 C 22,5 km/h (4 Bft)
19.05.2007 15:18 18,9 C 56 % 1010,5 hPa 0,0 l/m 23,0 km/h (4 Bft) NW 310 0 min 0 W/m 9,9 C 14,2 C 23,0 km/h (4 Bft)
19.05.2007 15:33 18,7 C 56 % 1010,5 hPa 0,0 l/m 20,1 km/h (4 Bft) NW 320 0 min 0 W/m 9,7 C 14,5 C 20,1 km/h (4 Bft)
19.05.2007 15:48 18,9 C 54 % 1010,5 hPa 0,0 l/m 19,1 km/h (3 Bft) W-NW 285 0 min 0 W/m 9,4 C 15,0 C 19,1 km/h (3 Bft)
19.05.2007 16:03 18,8 C 54 % 1010,5 hPa 0,0 l/m 17,9 km/h (3 Bft) NW 305 0 min 0 W/m 9,3 C 15,1 C 17,9 km/h (3 Bft)
19.05.2007 16:18 18,6 C 56 % 1010,5 hPa 0,0 l/m 22,1 km/h (4 Bft) W-NW 285 0 min 0 W/m 9,6 C 14,0 C 22,1 km/h (4 Bft)
19.05.2007 16:33 18,6 C 58 % 1011,5 hPa 0,0 l/m 20,8 km/h (4 Bft) NW 315 0 min 0 W/m 10,2 C 14,2 C 20,8 km/h (4 Bft)
19.05.2007 16:48 18,4 C 58 % 1011,5 hPa 0,0 l/m 23,8 km/h (4 Bft) NW 315 0 min 0 W/m 10,0 C 13,4 C 23,8 km/h (4 Bft)
19.05.2007 17:03 18,3 C 58 % 1011,5 hPa 0,0 l/m 25,0 km/h (4 Bft) N-NW 330 0 min 0 W/m 9,9 C 13,1 C 25,0 km/h (4 Bft)
19.05.2007 17:18 18,2 C 57 % 1011,5 hPa 0,0 l/m 25,4 km/h (4 Bft) NW 310 0 min 0 W/m 9,5 C 12,9 C 25,4 km/h (4 Bft)
19.05.2007 17:33 17,8 C 58 % 1011,5 hPa 0,0 l/m 28,7 km/h (5 Bft) NW 310 0 min 0 W/m 9,4 C 11,8 C 28,7 km/h (5 Bft)
19.05.2007 17:48 17,6 C 59 % 1011,5 hPa 0,0 l/m 24,4 km/h (4 Bft) NW 315 0 min 0 W/m 9,5 C 12,2 C 24,4 km/h (4 Bft)
19.05.2007 18:03 17,6 C 60 % 1011,5 hPa 0,0 l/m 25,3 km/h (4 Bft) NW 315 0 min 0 W/m 9,7 C 12,1 C 25,3 km/h (4 Bft)
19.05.2007 18:18 17,6 C 60 % 1011,5 hPa 0,0 l/m 25,0 km/h (4 Bft) W-NW 300 0 min 0 W/m 9,7 C 12,1 C 25,0 km/h (4 Bft)
19.05.2007 18:33 17,2 C 60 % 1011,5 hPa 0,0 l/m 19,1 km/h (3 Bft) NW 315 0 min 0 W/m 9,4 C 12,8 C 19,1 km/h (3 Bft)
19.05.2007 18:48 17,0 C 60 % 1011,5 hPa 0,0 l/m 21,0 km/h (4 Bft) NW 310 0 min 0 W/m 9,2 C 12,1 C 21,0 km/h (4 Bft)
19.05.2007 19:03 16,7 C 61 % 1011,5 hPa 0,0 l/m 15,0 km/h (3 Bft) NW 315 0 min 0 W/m 9,1 C 13,3 C 15,0 km/h (3 Bft)
19.05.2007 19:18 16,4 C 61 % 1012,5 hPa 0,0 l/m 17,5 km/h (3 Bft) NW 325 0 min 0 W/m 8,9 C 12,2 C 17,5 km/h (3 Bft)
19.05.2007 19:33 15,9 C 63 % 1012,5 hPa 0,0 l/m 18,4 km/h (3 Bft) NW 315 0 min 0 W/m 8,9 C 11,3 C 18,4 km/h (3 Bft)
19.05.2007 19:48 15,6 C 64 % 1012,5 hPa 0,0 l/m 14,3 km/h (3 Bft) NW 320 0 min 0 W/m 8,8 C 12,1 C 14,3 km/h (3 Bft)
19.05.2007 20:03 15,3 C 65 % 1012,5 hPa 0,0 l/m 16,1 km/h (3 Bft) NW 320 0 min 0 W/m 8,8 C 11,2 C 16,1 km/h (3 Bft)
19.05.2007 20:18 15,0 C 66 % 1012,5 hPa 0,0 l/m 16,9 km/h (3 Bft) NW 310 0 min 0 W/m 8,7 C 10,6 C 16,9 km/h (3 Bft)
19.05.2007 20:33 14,6 C 67 % 1012,5 hPa 0,0 l/m 12,7 km/h (3 Bft) NW 310 0 min 0 W/m 8,5 C 11,5 C 12,7 km/h (3 Bft)
19.05.2007 20:48 14,3 C 68 % 1012,5 hPa 0,0 l/m 12,6 km/h (3 Bft) NW 320 0 min 0 W/m 8,5 C 11,2 C 12,6 km/h (3 Bft)
19.05.2007 21:03 14,0 C 69 % 1013,5 hPa 0,0 l/m 14,1 km/h (3 Bft) W-NW 295 0 min 0 W/m 8,4 C 10,3 C 14,1 km/h (3 Bft)
19.05.2007 21:18 13,8 C 70 % 1013,5 hPa 0,0 l/m 10,3 km/h (2 Bft) NW 315 0 min 0 W/m 8,4 C 11,6 C 10,3 km/h (2 Bft)
19.05.2007 21:33 13,5 C 71 % 1013,5 hPa 0,0 l/m 9,6 km/h (2 Bft) NW 315 0 min 0 W/m 8,3 C 11,7 C 9,6 km/h (2 Bft)
19.05.2007 21:48 13,2 C 71 % 1013,5 hPa 0,0 l/m 6,8 km/h (2 Bft) NW 305 0 min 0 W/m 8,1 C 13,0 C 6,8 km/h (2 Bft)
19.05.2007 22:03 13,0 C 72 % 1013,5 hPa 0,0 l/m 6,8 km/h (2 Bft) NW 315 0 min 0 W/m 8,1 C 12,8 C 6,8 km/h (2 Bft)
19.05.2007 22:18 12,8 C 73 % 1013,5 hPa 0,0 l/m 5,0 km/h (1 Bft) W-NW 300 0 min 0 W/m 8,1 C 12,8 C 5,0 km/h (1 Bft)
19.05.2007 22:33 12,6 C 74 % 1014,5 hPa 0,0 l/m 2,5 km/h (1 Bft) NW 305 0 min 0 W/m 8,1 C 12,6 C 2,5 km/h (1 Bft)
19.05.2007 22:48 11,9 C 75 % 1014,5 hPa 0,0 l/m 0,0 km/h (0 Bft) W-NW 300 0 min 0 W/m 7,6 C 11,9 C 0,0 km/h (0 Bft)
19.05.2007 23:03 11,3 C 77 % 1014,5 hPa 0,0 l/m 0,0 km/h (0 Bft) W-SW 240 0 min 0 W/m 7,4 C 11,3 C 0,0 km/h (0 Bft)
19.05.2007 23:18 11,0 C 78 % 1014,5 hPa 0,0 l/m 0,0 km/h (0 Bft) SW 230 0 min 0 W/m 7,3 C 11,0 C 0,0 km/h (0 Bft)
19.05.2007 23:33 10,7 C 80 % 1014,5 hPa 0,0 l/m 5,5 km/h (2 Bft) S-SO 165 0 min 0 W/m 7,4 C 10,7 C 5,5 km/h (2 Bft)
19.05.2007 23:48 10,6 C 81 % 1014,5 hPa 0,0 l/m 3,9 km/h (1 Bft) S-SO 155 0 min 0 W/m 7,5 C 10,6 C 3,9 km/h (1 Bft)
_ Min-Zeit 23:48 12:03 01:03 - 22:48 - - - - 23:18 06:48 22:48
Minimum _ 10,6 C 51 % 1006,5 hPa - 0,0 km/h (0 Bft) - - - - 7,3 C 7,1 C 0,0 km/h (0 Bft)
_ Max-Zeit 13:03 05:03 22:33 00:03 10:33 - - 00:03 00:03 04:03 14:18 10:33
Maximum _ 19,8 C 83 % 1014,5 hPa 0,0 l/m 32,0 km/h
W-SW (5 Bft)
- - 0 min 0 W/m 12,7 C 16,3 C 32,0 km/h
W-SW (5 Bft)
Durchschnitt _ 16,2 C 68 % 1009,7 hPa #0,0 l/m 20,7 km/h (4 Bft) NW - #0 min. 0 W/m 10,1 C 11,5 C 20,7 km/h (4 Bft)
copyright by Holger Just